createdAt,value
2018-01-24T00:00:41.298Z,-0.21
2018-01-24T00:03:09.013Z,-0.21
2018-01-24T00:05:36.545Z,-0.23
2018-01-24T00:08:04.218Z,-0.26
2018-01-24T00:10:31.809Z,-0.24
2018-01-24T00:12:59.350Z,-0.19
2018-01-24T00:15:26.937Z,-0.15
2018-01-24T00:17:54.592Z,-0.19
2018-01-24T00:20:22.301Z,-0.20
2018-01-24T00:22:50.042Z,-0.19
2018-01-24T00:25:17.598Z,-0.20
2018-01-24T00:27:45.194Z,-0.25
2018-01-24T00:30:12.773Z,-0.20
2018-01-24T00:32:40.461Z,-0.32
2018-01-24T00:35:08.098Z,-0.33
2018-01-24T00:37:35.642Z,-0.29
2018-01-24T00:40:03.407Z,-0.32
2018-01-24T00:42:30.960Z,-0.39
2018-01-24T00:44:58.635Z,-0.41
2018-01-24T00:47:26.362Z,-0.47
2018-01-24T00:49:54.173Z,-0.44
2018-01-24T00:52:21.769Z,-0.48
2018-01-24T00:54:49.306Z,-0.53
2018-01-24T00:57:16.867Z,-0.62
2018-01-24T00:59:44.448Z,-0.64
2018-01-24T01:02:12.032Z,-0.65
2018-01-24T01:04:39.618Z,-0.74
2018-01-24T01:07:07.170Z,-0.76
2018-01-24T01:09:34.762Z,-0.70
2018-01-24T01:12:02.322Z,-0.67
2018-01-24T01:14:30.052Z,-0.67
2018-01-24T01:16:57.634Z,-0.79
2018-01-24T01:19:25.191Z,-0.77
2018-01-24T01:21:52.802Z,-0.78
2018-01-24T01:24:20.358Z,-0.84
2018-01-24T01:26:47.906Z,-0.94
2018-01-24T01:29:15.578Z,-0.93
2018-01-24T01:31:43.340Z,-0.96
2018-01-24T01:34:10.890Z,-0.94
2018-01-24T01:36:38.445Z,-0.96
2018-01-24T01:39:06.188Z,-0.93
2018-01-24T01:41:33.790Z,-0.91
2018-01-24T01:44:01.434Z,-0.93
2018-01-24T01:46:29.026Z,-0.97
2018-01-24T01:48:56.581Z,-0.97
2018-01-24T01:51:24.173Z,-0.97
2018-01-24T01:53:51.814Z,-0.90
2018-01-24T01:56:19.382Z,-0.94
2018-01-24T01:58:46.983Z,-0.87
2018-01-24T02:01:14.578Z,-0.86
2018-01-24T02:03:42.140Z,-0.88
2018-01-24T02:06:09.826Z,-0.81
2018-01-24T02:08:37.540Z,-0.95
2018-01-24T02:11:05.259Z,-1.11
2018-01-24T02:13:33.078Z,-1.12
2018-01-24T02:16:00.795Z,-1.08
2018-01-24T02:18:28.442Z,-1.05
2018-01-24T02:20:55.986Z,-1.00
2018-01-24T02:23:23.572Z,-0.97
2018-01-24T02:25:51.230Z,-0.98
2018-01-24T02:28:18.786Z,-1.00
2018-01-24T02:30:46.406Z,-1.04
2018-01-24T02:33:13.946Z,-1.14
2018-01-24T02:35:41.507Z,-1.25
2018-01-24T02:38:09.122Z,-1.31
2018-01-24T02:40:36.682Z,-1.42
2018-01-24T02:43:04.242Z,-1.38
2018-01-24T02:45:31.795Z,-1.41
2018-01-24T02:47:59.526Z,-1.41
2018-01-24T02:50:27.347Z,-1.41
2018-01-24T02:52:54.895Z,-1.46
2018-01-24T02:55:22.450Z,-1.43
2018-01-24T02:57:50.038Z,-1.35
2018-01-24T03:00:17.723Z,-1.29
2018-01-24T03:02:45.433Z,-1.23
2018-01-24T03:05:13.039Z,-1.22
2018-01-24T03:07:40.638Z,-1.21
2018-01-24T03:10:08.388Z,-1.20
2018-01-24T03:12:35.978Z,-1.12
2018-01-24T03:15:03.537Z,-1.09
2018-01-24T03:17:31.095Z,-1.09
2018-01-24T03:19:58.662Z,-1.15
2018-01-24T03:22:26.477Z,-1.14
2018-01-24T03:24:54.199Z,-1.16
2018-01-24T03:27:22.013Z,-1.22
2018-01-24T03:29:49.558Z,-1.18
2018-01-24T03:32:17.276Z,-1.20
2018-01-24T03:34:44.814Z,-1.23
2018-01-24T03:37:12.483Z,-1.23
2018-01-24T03:39:40.034Z,-1.23
2018-01-24T03:42:07.646Z,-1.20
2018-01-24T03:44:35.210Z,-1.17
2018-01-24T03:47:02.956Z,-1.20
2018-01-24T03:49:30.603Z,-1.23
2018-01-24T03:51:58.158Z,-1.28
2018-01-24T03:54:25.710Z,-1.34
2018-01-24T03:56:53.323Z,-1.35
2018-01-24T03:59:20.864Z,-1.39
2018-01-24T04:01:48.562Z,-1.40
2018-01-24T04:04:16.119Z,-1.40
2018-01-24T04:06:43.666Z,-1.36
2018-01-24T04:09:11.226Z,-1.41
2018-01-24T04:11:38.770Z,-1.41
2018-01-24T04:14:06.551Z,-1.43
2018-01-24T04:16:34.170Z,-1.47
2018-01-24T04:19:01.772Z,-1.48
2018-01-24T04:21:29.330Z,-1.53
2018-01-24T04:23:56.878Z,-1.42
2018-01-24T04:26:24.474Z,-1.45
2018-01-24T04:28:52.026Z,-1.47
2018-01-24T04:31:19.683Z,-1.42
2018-01-24T04:33:47.399Z,-1.39
2018-01-24T04:36:15.117Z,-1.37
2018-01-24T04:38:42.774Z,-1.39
2018-01-24T04:41:10.550Z,-1.41
2018-01-24T04:43:38.107Z,-1.43
2018-01-24T04:46:05.661Z,-1.44
2018-01-24T04:48:33.211Z,-1.38
2018-01-24T04:51:00.836Z,-1.37
2018-01-24T04:53:28.604Z,-1.47
2018-01-24T04:55:56.320Z,-1.57
2018-01-24T04:58:23.921Z,-1.57
2018-01-24T05:00:51.506Z,-1.50
2018-01-24T05:03:19.308Z,-1.52
2018-01-24T05:05:46.850Z,-1.47
2018-01-24T05:08:14.441Z,-1.49
2018-01-24T05:10:42.022Z,-1.52
2018-01-24T05:13:09.786Z,-1.51
2018-01-24T05:15:37.425Z,-1.53
2018-01-24T05:18:04.974Z,-1.57
2018-01-24T05:20:36.346Z,-1.61
2018-01-24T05:23:04.076Z,-1.65
2018-01-24T05:25:31.618Z,-1.61
2018-01-24T05:27:59.214Z,-1.62
2018-01-24T05:30:26.922Z,-1.61
2018-01-24T05:32:54.474Z,-1.65
2018-01-24T05:35:22.050Z,-1.68
2018-01-24T05:37:49.602Z,-1.70
2018-01-24T05:40:17.322Z,-1.71
2018-01-24T05:42:44.870Z,-1.76
2018-01-24T05:45:12.410Z,-1.70
2018-01-24T05:47:40.042Z,-1.73
2018-01-24T05:50:07.596Z,-1.70
2018-01-24T05:52:35.381Z,-1.67
2018-01-24T05:55:02.929Z,-1.67
2018-01-24T05:57:31.418Z,-1.69
2018-01-24T05:59:59.133Z,-1.65
2018-01-24T06:02:26.686Z,-1.71
2018-01-24T06:04:54.286Z,-1.65
2018-01-24T06:07:21.834Z,-1.64
2018-01-24T06:09:49.576Z,-1.69
2018-01-24T06:12:17.226Z,-1.72
2018-01-24T06:14:44.941Z,-1.69
2018-01-24T06:17:12.725Z,-1.68
2018-01-24T06:19:40.387Z,-1.68
2018-01-24T06:22:07.942Z,-1.70
2018-01-24T06:24:35.506Z,-1.69
2018-01-24T06:27:03.135Z,-1.71
2018-01-24T06:29:31.052Z,-1.69
2018-01-24T06:31:58.868Z,-1.67
2018-01-24T06:34:26.691Z,-1.59
2018-01-24T06:36:54.262Z,-1.59
2018-01-24T06:39:21.818Z,-1.57
2018-01-24T06:41:49.414Z,-1.47
2018-01-24T06:44:17.095Z,-1.42
2018-01-24T06:46:44.779Z,-1.35
2018-01-24T06:49:12.342Z,-1.29
2018-01-24T06:51:39.901Z,-1.31
2018-01-24T06:54:07.729Z,-1.32
2018-01-24T06:56:35.274Z,-1.38
2018-01-24T06:59:02.851Z,-1.33
2018-01-24T07:01:30.415Z,-1.38
2018-01-24T07:03:58.100Z,-1.34
2018-01-24T07:06:25.694Z,-1.33
2018-01-24T07:08:53.436Z,-1.29
2018-01-24T07:11:21.155Z,-1.27
2018-01-24T07:14:00.377Z,-1.21
2018-01-24T07:16:27.929Z,-1.17
2018-01-24T07:18:55.751Z,-1.17
2018-01-24T07:21:23.304Z,-1.16
2018-01-24T07:23:50.890Z,-1.08
2018-01-24T07:26:18.690Z,-1.06
2018-01-24T07:28:46.722Z,-1.04
2018-01-24T07:31:14.476Z,-1.11
2018-01-24T07:33:42.148Z,-1.12
2018-01-24T07:36:09.734Z,-1.15
2018-01-24T07:38:37.390Z,-1.07
2018-01-24T07:41:05.112Z,-1.06
2018-01-24T07:43:32.731Z,-1.11
2018-01-24T07:46:00.282Z,-1.10
2018-01-24T07:48:27.956Z,-1.08
2018-01-24T07:50:55.538Z,-1.08
2018-01-24T07:53:23.092Z,-1.15
2018-01-24T07:55:50.650Z,-1.10
2018-01-24T07:58:18.194Z,-1.11
2018-01-24T08:00:45.782Z,-0.97
2018-01-24T08:03:13.379Z,-0.90
2018-01-24T08:05:41.053Z,-0.83
2018-01-24T08:08:08.629Z,-0.77
2018-01-24T08:10:36.327Z,-0.65
2018-01-24T08:13:04.046Z,-0.59
2018-01-24T08:15:31.667Z,-0.50
2018-01-24T08:17:59.217Z,-0.40
2018-01-24T08:20:26.778Z,-0.19
2018-01-24T08:22:54.326Z,0.04
2018-01-24T08:25:22.002Z,0.29
2018-01-24T08:27:49.670Z,0.51
2018-01-24T08:30:17.468Z,0.91
2018-01-24T08:32:45.086Z,1.41
2018-01-24T08:35:12.629Z,2.01
2018-01-24T08:37:40.873Z,2.33
2018-01-24T08:40:08.963Z,2.70
2018-01-24T08:42:36.503Z,2.97
2018-01-24T08:45:04.094Z,3.10
2018-01-24T08:47:31.629Z,3.59
2018-01-24T08:49:59.415Z,4.68
2018-01-24T08:52:27.108Z,6.10
2018-01-24T08:54:55.069Z,6.73
2018-01-24T08:57:22.771Z,7.69
2018-01-24T08:59:50.304Z,7.77
2018-01-24T09:02:17.994Z,7.63
2018-01-24T09:04:45.550Z,7.67
2018-01-24T09:07:13.133Z,7.32
2018-01-24T09:09:40.716Z,7.28
2018-01-24T09:12:08.277Z,7.85
2018-01-24T09:14:36.194Z,8.44
2018-01-24T09:17:03.733Z,8.80
2018-01-24T09:19:31.265Z,7.77
2018-01-24T09:21:58.816Z,6.93
2018-01-24T09:24:26.378Z,6.39
2018-01-24T09:26:53.954Z,6.21
2018-01-24T09:29:21.582Z,6.29
2018-01-24T09:31:49.115Z,6.66
2018-01-24T09:34:17.845Z,6.80
2018-01-24T09:36:45.522Z,7.23
2018-01-24T09:39:13.103Z,8.00
2018-01-24T09:41:40.795Z,7.72
2018-01-24T09:44:08.711Z,8.36
2018-01-24T09:46:36.406Z,8.94
2018-01-24T09:49:03.974Z,9.17
2018-01-24T09:51:31.566Z,8.78
2018-01-24T09:53:59.283Z,8.22
2018-01-24T09:56:26.902Z,7.87
2018-01-24T09:58:54.518Z,8.12
2018-01-24T10:01:22.232Z,8.48
2018-01-24T10:03:49.810Z,8.42
2018-01-24T10:06:17.354Z,8.85
2018-01-24T10:08:44.901Z,9.22
2018-01-24T10:11:12.441Z,9.56
2018-01-24T10:13:39.989Z,9.50
2018-01-24T10:16:07.743Z,9.61
2018-01-24T10:18:35.278Z,9.62
2018-01-24T10:21:02.870Z,10.20
2018-01-24T10:23:30.503Z,9.70
2018-01-24T10:25:58.319Z,9.76
2018-01-24T10:28:25.898Z,9.70
2018-01-24T10:30:53.608Z,9.43
2018-01-24T10:33:21.369Z,8.59
2018-01-24T10:35:49.087Z,7.81
2018-01-24T10:38:16.614Z,8.20
2018-01-24T10:40:44.212Z,8.21
2018-01-24T10:43:11.742Z,8.05
2018-01-24T10:45:39.274Z,8.22
2018-01-24T10:48:06.823Z,8.77
2018-01-24T10:50:34.385Z,9.10
2018-01-24T10:53:01.985Z,9.29
2018-01-24T10:55:29.519Z,9.32
2018-01-24T10:57:57.058Z,9.28
2018-01-24T11:00:24.652Z,9.37
2018-01-24T11:02:52.280Z,9.71
2018-01-24T11:05:20.101Z,9.99
2018-01-24T11:07:47.817Z,9.87
2018-01-24T11:10:15.375Z,9.11
2018-01-24T11:12:43.153Z,8.77
2018-01-24T11:15:10.727Z,8.07
2018-01-24T11:17:38.491Z,7.90
2018-01-24T11:20:06.105Z,8.57
2018-01-24T11:22:33.827Z,8.91
2018-01-24T11:25:01.517Z,9.00
2018-01-24T11:27:29.162Z,8.59
2018-01-24T11:29:56.878Z,8.91
2018-01-24T11:32:24.411Z,9.51
2018-01-24T11:34:51.999Z,9.94
2018-01-24T11:37:19.841Z,10.59
2018-01-24T11:39:47.393Z,10.23
2018-01-24T11:42:15.170Z,10.51
2018-01-24T11:44:42.697Z,10.18
2018-01-24T11:47:10.404Z,9.75
2018-01-24T11:49:37.950Z,9.83
2018-01-24T11:52:05.532Z,9.97
2018-01-24T11:54:33.125Z,10.30
2018-01-24T11:57:00.666Z,10.68
2018-01-24T11:59:28.225Z,10.82
2018-01-24T12:01:55.778Z,10.54
2018-01-24T12:04:23.326Z,10.86
2018-01-24T12:06:50.906Z,11.07
2018-01-24T12:09:18.458Z,10.31
2018-01-24T12:11:46.003Z,9.98
2018-01-24T12:14:13.558Z,10.52
2018-01-24T12:16:41.106Z,9.97
2018-01-24T12:19:08.675Z,10.31
2018-01-24T12:21:36.213Z,10.58
2018-01-24T12:24:03.762Z,10.85
2018-01-24T12:26:31.322Z,8.84
2018-01-24T12:28:58.882Z,8.72
2018-01-24T12:31:26.450Z,8.44
2018-01-24T12:33:53.980Z,7.61
2018-01-24T12:36:21.510Z,7.24
2018-01-24T12:38:49.071Z,6.87
2018-01-24T12:41:16.640Z,6.77
2018-01-24T12:43:44.229Z,7.26
2018-01-24T12:46:11.778Z,8.33
2018-01-24T12:48:39.320Z,9.40
2018-01-24T12:51:06.899Z,10.36
2018-01-24T12:53:34.473Z,11.01
2018-01-24T12:56:02.049Z,11.26
2018-01-24T12:58:29.608Z,10.83
2018-01-24T13:00:57.166Z,11.00
2018-01-24T13:03:24.723Z,10.36
2018-01-24T13:05:52.259Z,10.70
2018-01-24T13:08:19.826Z,10.30
2018-01-24T13:10:47.357Z,10.69
2018-01-24T13:13:14.940Z,10.02
2018-01-24T13:15:42.471Z,10.16
2018-01-24T13:18:10.030Z,10.02
2018-01-24T13:20:37.615Z,10.06
2018-01-24T13:23:05.150Z,10.43
2018-01-24T13:25:32.702Z,10.98
2018-01-24T13:28:00.250Z,10.89
2018-01-24T13:30:27.794Z,10.88
2018-01-24T13:32:55.391Z,10.31
2018-01-24T13:35:22.969Z,10.66
2018-01-24T13:37:50.502Z,10.16
2018-01-24T13:40:18.054Z,11.07
2018-01-24T13:42:45.622Z,11.11
2018-01-24T13:45:13.241Z,10.82
2018-01-24T13:47:40.775Z,10.33
2018-01-24T13:50:08.374Z,10.67
2018-01-24T13:52:35.938Z,10.19
2018-01-24T13:55:03.514Z,9.89
2018-01-24T13:57:31.105Z,9.11
2018-01-24T13:59:58.670Z,9.53
2018-01-24T14:02:26.198Z,9.78
2018-01-24T14:04:53.742Z,10.28
2018-01-24T14:07:21.285Z,10.15
2018-01-24T14:09:49.046Z,10.29
2018-01-24T14:12:16.577Z,9.72
2018-01-24T14:14:44.114Z,9.34
2018-01-24T14:17:11.650Z,8.85
2018-01-24T14:19:39.212Z,8.47
2018-01-24T14:22:06.786Z,7.48
2018-01-24T14:24:34.425Z,6.61
2018-01-24T14:27:01.993Z,6.52
2018-01-24T14:29:29.543Z,6.66
2018-01-24T14:31:57.178Z,6.21
2018-01-24T14:34:24.747Z,6.49
2018-01-24T14:36:52.282Z,6.40
2018-01-24T14:39:19.834Z,6.26
2018-01-24T14:41:47.385Z,6.09
2018-01-24T14:44:14.915Z,6.73
2018-01-24T14:46:42.483Z,6.66
2018-01-24T14:49:10.099Z,6.31
2018-01-24T14:51:37.638Z,5.97
2018-01-24T14:54:05.194Z,5.98
2018-01-24T14:56:32.730Z,5.50
2018-01-24T14:59:00.322Z,4.20
2018-01-24T15:01:27.861Z,3.08
2018-01-24T15:03:55.403Z,2.29
2018-01-24T15:06:22.950Z,1.61
2018-01-24T15:08:50.486Z,1.14
2018-01-24T15:11:18.157Z,0.80
2018-01-24T15:13:45.695Z,0.40
2018-01-24T15:16:13.234Z,0.06
2018-01-24T15:18:40.798Z,-0.11
2018-01-24T15:21:08.345Z,-0.20
2018-01-24T15:23:35.966Z,-0.39
2018-01-24T15:26:03.570Z,-0.47
2018-01-24T15:28:31.165Z,-0.54
2018-01-24T15:30:58.718Z,-0.68
2018-01-24T15:33:26.332Z,-0.73
2018-01-24T15:35:53.938Z,-0.89
2018-01-24T15:38:21.527Z,-1.03
2018-01-24T15:40:49.138Z,-1.11
2018-01-24T15:43:16.923Z,-1.14
2018-01-24T15:45:44.466Z,-1.27
2018-01-24T15:48:12.086Z,-1.33
2018-01-24T15:50:39.715Z,-1.45
2018-01-24T15:53:07.372Z,-1.52
2018-01-24T15:55:34.925Z,-1.59
2018-01-24T15:58:02.500Z,-1.58
2018-01-24T16:00:30.098Z,-1.65
2018-01-24T16:02:57.684Z,-1.63
2018-01-24T16:05:25.265Z,-1.71
2018-01-24T16:07:52.827Z,-1.78
2018-01-24T16:10:20.382Z,-1.76
2018-01-24T16:12:48.110Z,-1.80
2018-01-24T16:15:15.657Z,-1.75
2018-01-24T16:17:43.337Z,-1.70
2018-01-24T16:20:11.058Z,-1.73
2018-01-24T16:22:38.614Z,-1.81
2018-01-24T16:25:06.215Z,-1.85
2018-01-24T16:27:34.017Z,-1.81
2018-01-24T16:30:01.613Z,-1.88
2018-01-24T16:32:29.354Z,-1.96
2018-01-24T16:34:56.907Z,-2.04
2018-01-24T16:37:24.693Z,-2.05
2018-01-24T16:39:52.266Z,-2.07
2018-01-24T16:42:19.955Z,-2.04
2018-01-24T16:44:47.743Z,-2.05
2018-01-24T16:47:15.302Z,-2.11
2018-01-24T16:49:43.603Z,-2.13
2018-01-24T16:52:11.296Z,-2.15
2018-01-24T16:54:38.850Z,-2.20
2018-01-24T16:57:06.425Z,-2.26
2018-01-24T16:59:34.156Z,-2.28
2018-01-24T17:02:01.870Z,-2.35
2018-01-24T17:04:29.422Z,-2.32
2018-01-24T17:06:56.977Z,-2.33
2018-01-24T17:09:24.526Z,-2.35
2018-01-24T17:11:52.341Z,-2.32
2018-01-24T17:14:19.938Z,-2.37
2018-01-24T17:16:47.506Z,-2.45
2018-01-24T17:19:15.058Z,-2.44
2018-01-24T17:21:42.618Z,-2.45
2018-01-24T17:24:10.332Z,-2.48
2018-01-24T17:26:38.077Z,-2.42
2018-01-24T17:29:05.629Z,-2.45
2018-01-24T17:31:33.178Z,-2.51
2018-01-24T17:34:00.793Z,-2.54
2018-01-24T17:36:28.523Z,-2.60
2018-01-24T17:38:56.118Z,-2.59
2018-01-24T17:41:23.671Z,-2.65
2018-01-24T17:43:51.233Z,-2.67
2018-01-24T17:46:18.854Z,-2.77
2018-01-24T17:48:46.408Z,-2.84
2018-01-24T17:51:14.226Z,-2.91
2018-01-24T17:53:41.944Z,-2.88
2018-01-24T17:56:09.502Z,-2.91
2018-01-24T17:58:37.057Z,-2.93
2018-01-24T18:01:04.598Z,-3.07
2018-01-24T18:03:32.322Z,-3.06
2018-01-24T18:05:59.866Z,-3.06
2018-01-24T18:08:27.650Z,-3.08
2018-01-24T18:10:55.205Z,-3.07
2018-01-24T18:13:22.806Z,-3.10
2018-01-24T18:15:51.508Z,-3.17
2018-01-24T18:18:19.106Z,-3.19
2018-01-24T18:20:46.742Z,-3.19
2018-01-24T18:23:14.367Z,-3.18
2018-01-24T18:25:42.080Z,-3.29
2018-01-24T18:28:09.670Z,-3.38
2018-01-24T18:30:37.274Z,-3.44
2018-01-24T18:33:04.826Z,-3.40
2018-01-24T18:35:32.385Z,-3.44
2018-01-24T18:37:59.955Z,-3.41
2018-01-24T18:40:27.557Z,-3.37
2018-01-24T18:42:55.122Z,-3.42
2018-01-24T18:45:22.815Z,-3.43
2018-01-24T18:47:50.543Z,-3.54
2018-01-24T18:50:18.510Z,-3.64
2018-01-24T18:52:46.848Z,-3.71
2018-01-24T18:55:14.429Z,-3.77
2018-01-24T18:57:41.983Z,-3.92
2018-01-24T19:00:09.545Z,-3.91
2018-01-24T19:02:37.250Z,-3.97
2018-01-24T19:05:04.988Z,-3.95
2018-01-24T19:07:32.564Z,-3.97
2018-01-24T19:10:00.158Z,-3.98
2018-01-24T19:12:27.731Z,-3.94
2018-01-24T19:14:55.293Z,-3.91
2018-01-24T19:17:22.966Z,-3.95
2018-01-24T19:19:50.513Z,-3.96
2018-01-24T19:22:18.054Z,-3.98
2018-01-24T19:24:45.642Z,-4.08
2018-01-24T19:27:13.181Z,-4.18
2018-01-24T19:29:40.779Z,-4.08
2018-01-24T19:32:08.363Z,-4.11
2018-01-24T19:34:36.186Z,-4.14
2018-01-24T19:37:03.747Z,-4.07
2018-01-24T19:39:31.418Z,-4.05
2018-01-24T19:41:59.171Z,-4.13
2018-01-24T19:44:26.732Z,-4.19
2018-01-24T19:46:54.364Z,-4.16
2018-01-24T19:49:22.031Z,-4.24
2018-01-24T19:51:49.589Z,-4.21
2018-01-24T19:54:17.214Z,-4.28
2018-01-24T19:56:44.858Z,-4.32
2018-01-24T19:59:12.401Z,-4.30
2018-01-24T20:01:39.949Z,-4.35
2018-01-24T20:04:07.498Z,-4.34
2018-01-24T20:06:35.085Z,-4.32
2018-01-24T20:09:02.647Z,-4.41
2018-01-24T20:11:30.190Z,-4.53
2018-01-24T20:13:57.738Z,-4.54
2018-01-24T20:16:25.395Z,-4.47
2018-01-24T20:18:53.011Z,-4.47
2018-01-24T20:21:20.687Z,-4.54
2018-01-24T20:23:48.278Z,-4.53
2018-01-24T20:26:15.962Z,-4.56
2018-01-24T20:28:43.503Z,-4.55
2018-01-24T20:31:11.102Z,-4.51
2018-01-24T20:33:38.650Z,-4.61
2018-01-24T20:36:06.401Z,-4.66
2018-01-24T20:38:33.953Z,-4.71
2018-01-24T20:41:01.774Z,-4.69
2018-01-24T20:43:29.379Z,-4.76
2018-01-24T20:45:56.930Z,-4.70
2018-01-24T20:48:24.479Z,-4.80
2018-01-24T20:50:52.037Z,-4.81
2018-01-24T20:53:19.577Z,-4.83
2018-01-24T20:55:47.170Z,-4.86
2018-01-24T20:58:14.710Z,-4.91
2018-01-24T21:00:42.283Z,-4.85
2018-01-24T21:03:09.834Z,-4.82
2018-01-24T21:05:37.538Z,-4.81
2018-01-24T21:08:05.126Z,-4.86
2018-01-24T21:10:32.852Z,-4.90
2018-01-24T21:13:00.427Z,-4.94
2018-01-24T21:15:28.109Z,-4.92
2018-01-24T21:17:55.674Z,-5.01
2018-01-24T21:20:23.284Z,-5.10
2018-01-24T21:22:50.834Z,-5.07
2018-01-24T21:25:18.378Z,-5.05
2018-01-24T21:27:46.199Z,-5.09
2018-01-24T21:30:21.669Z,-5.07
2018-01-24T21:33:01.218Z,-5.03
2018-01-24T21:35:40.562Z,-4.96
2018-01-24T21:38:08.193Z,-4.99
2018-01-24T21:40:35.753Z,-4.99
2018-01-24T21:43:03.338Z,-5.04
2018-01-24T21:45:30.927Z,-5.13
2018-01-24T21:47:58.470Z,-5.14
2018-01-24T21:50:26.169Z,-5.07
2018-01-24T21:52:53.777Z,-5.04
2018-01-24T21:55:21.318Z,-5.00
2018-01-24T21:57:49.837Z,-5.02
2018-01-24T22:00:17.393Z,-5.01
2018-01-24T22:02:44.954Z,-5.03
2018-01-24T22:05:12.514Z,-5.00
2018-01-24T22:07:40.066Z,-5.05
2018-01-24T22:10:07.611Z,-5.17
2018-01-24T22:12:35.162Z,-5.24
2018-01-24T22:15:02.721Z,-5.37
2018-01-24T22:17:30.270Z,-5.49
2018-01-24T22:19:57.830Z,-5.55
2018-01-24T22:22:25.555Z,-5.64
2018-01-24T22:24:53.114Z,-5.64
2018-01-24T22:27:20.812Z,-5.75
2018-01-24T22:29:48.366Z,-5.79
2018-01-24T22:32:15.987Z,-5.86
2018-01-24T22:34:43.526Z,-5.84
2018-01-24T22:37:11.310Z,-5.83
2018-01-24T22:39:38.889Z,-5.85
2018-01-24T22:42:06.544Z,-5.92
2018-01-24T22:44:34.130Z,-5.90
2018-01-24T22:47:01.670Z,-5.93
2018-01-24T22:49:29.210Z,-6.04
2018-01-24T22:51:56.752Z,-6.03
2018-01-24T22:54:24.304Z,-6.02
2018-01-24T22:56:52.050Z,-6.01
2018-01-24T22:59:19.626Z,-6.03
2018-01-24T23:01:47.386Z,-6.12
2018-01-24T23:04:15.201Z,-6.13
2018-01-24T23:06:42.750Z,-6.18
2018-01-24T23:09:10.285Z,-6.14
2018-01-24T23:11:37.962Z,-6.09
2018-01-24T23:14:05.619Z,-6.12
2018-01-24T23:16:33.165Z,-6.14
2018-01-24T23:19:00.761Z,-6.18
2018-01-24T23:21:28.322Z,-6.20
2018-01-24T23:23:55.934Z,-6.23
2018-01-24T23:26:23.514Z,-6.30
2018-01-24T23:28:51.206Z,-6.35
2018-01-24T23:31:18.746Z,-6.46
2018-01-24T23:33:46.281Z,-6.43
2018-01-24T23:36:14.012Z,-6.47
2018-01-24T23:38:41.558Z,-6.44
2018-01-24T23:41:09.110Z,-6.37
2018-01-24T23:43:36.661Z,-6.33
2018-01-24T23:46:04.305Z,-6.37
2018-01-24T23:48:32.023Z,-6.37
2018-01-24T23:50:59.640Z,-6.40
2018-01-24T23:53:27.174Z,-6.37
2018-01-24T23:55:54.977Z,-6.32
2018-01-24T23:58:22.529Z,-6.37
